createdAt,value
2019-01-23T00:02:27.570Z,79.47
2019-01-23T00:05:42.791Z,79.53
2019-01-23T00:08:58.183Z,79.56
2019-01-23T00:12:13.731Z,79.67
2019-01-23T00:15:28.868Z,79.61
2019-01-23T00:18:44.127Z,79.50
2019-01-23T00:21:59.583Z,79.64
2019-01-23T00:25:15.304Z,79.55
2019-01-23T00:28:30.798Z,79.75
2019-01-23T00:31:46.074Z,79.78
2019-01-23T00:35:01.418Z,79.81
2019-01-23T00:38:16.755Z,79.70
2019-01-23T00:41:32.211Z,79.58
2019-01-23T00:44:47.709Z,79.48
2019-01-23T00:48:03.123Z,79.52
2019-01-23T00:51:18.579Z,79.56
2019-01-23T00:54:33.867Z,79.61
2019-01-23T00:57:49.190Z,79.73
2019-01-23T01:01:04.591Z,79.80
2019-01-23T01:04:19.999Z,79.81
2019-01-23T01:07:35.467Z,80.04
2019-01-23T01:10:51.003Z,79.91
2019-01-23T01:14:06.560Z,80.12
2019-01-23T01:17:22.158Z,80.23
2019-01-23T01:20:37.466Z,80.41
2019-01-23T01:23:53.025Z,80.41
2019-01-23T01:27:08.479Z,80.36
2019-01-23T01:30:23.569Z,80.96
2019-01-23T01:33:39.097Z,81.05
2019-01-23T01:36:54.330Z,80.70
2019-01-23T01:40:12.494Z,80.47
2019-01-23T01:43:26.757Z,80.53
2019-01-23T01:46:42.336Z,80.36
2019-01-23T01:50:00.357Z,80.68
2019-01-23T01:53:14.952Z,80.53
2019-01-23T01:56:34.431Z,80.65
2019-01-23T01:59:49.840Z,80.57
2019-01-23T02:03:05.126Z,80.59
2019-01-23T02:06:20.548Z,80.77
2019-01-23T02:09:35.954Z,81.22
2019-01-23T02:12:51.163Z,81.17
2019-01-23T02:16:06.448Z,81.07
2019-01-23T02:19:21.673Z,81.43
2019-01-23T02:22:37.048Z,81.28
2019-01-23T02:25:52.608Z,81.71
2019-01-23T02:29:09.649Z,81.46
2019-01-23T02:32:25.105Z,81.57
2019-01-23T02:35:40.614Z,81.90
2019-01-23T02:38:56.170Z,82.02
2019-01-23T02:42:29.298Z,81.46
2019-01-23T02:45:44.573Z,81.18
2019-01-23T02:49:00.132Z,81.02
2019-01-23T02:52:15.584Z,81.12
2019-01-23T02:55:31.084Z,80.95
2019-01-23T02:58:46.392Z,80.61
2019-01-23T03:02:01.744Z,80.72
2019-01-23T03:05:17.093Z,80.79
2019-01-23T03:08:32.348Z,80.83
2019-01-23T03:11:47.907Z,80.67
2019-01-23T03:15:03.350Z,80.71
2019-01-23T03:18:18.719Z,80.91
2019-01-23T03:21:34.070Z,81.00
2019-01-23T03:24:49.711Z,80.91
2019-01-23T03:28:05.173Z,80.77
2019-01-23T03:31:20.735Z,80.56
2019-01-23T03:34:36.302Z,80.36
2019-01-23T03:37:51.651Z,80.45
2019-01-23T03:41:06.894Z,80.83
2019-01-23T03:44:22.258Z,80.74
2019-01-23T03:47:37.709Z,80.76
2019-01-23T03:50:53.048Z,80.69
2019-01-23T03:54:08.187Z,80.87
2019-01-23T03:57:23.692Z,81.06
2019-01-23T04:00:39.850Z,81.31
2019-01-23T04:03:55.459Z,81.70
2019-01-23T04:07:11.043Z,81.70
2019-01-23T04:10:26.543Z,82.03
2019-01-23T04:13:41.635Z,82.26
2019-01-23T04:16:56.811Z,82.32
2019-01-23T04:20:14.310Z,83.26
2019-01-23T04:23:29.562Z,83.66
2019-01-23T04:26:45.121Z,83.20
2019-01-23T04:30:00.475Z,83.17
2019-01-23T04:33:15.922Z,82.75
2019-01-23T04:36:31.581Z,82.61
2019-01-23T04:39:46.934Z,82.38
2019-01-23T04:43:02.178Z,82.38
2019-01-23T04:46:17.530Z,82.23
2019-01-23T04:49:32.780Z,82.11
2019-01-23T04:52:56.424Z,82.20
2019-01-23T04:56:12.102Z,82.59
2019-01-23T04:59:27.340Z,82.60
2019-01-23T05:02:42.692Z,82.72
2019-01-23T05:05:58.194Z,82.71
2019-01-23T05:09:13.479Z,82.59
2019-01-23T05:12:28.784Z,82.59
2019-01-23T05:15:44.163Z,82.62
2019-01-23T05:18:59.452Z,82.33
2019-01-23T05:22:15.006Z,82.29
2019-01-23T05:25:30.680Z,82.27
2019-01-23T05:28:46.029Z,82.18
2019-01-23T05:32:02.743Z,82.09
2019-01-23T05:35:18.152Z,82.21
2019-01-23T05:38:33.407Z,82.11
2019-01-23T05:41:48.752Z,82.15
2019-01-23T05:45:04.233Z,82.21
2019-01-23T05:48:19.359Z,82.01
2019-01-23T05:51:34.617Z,81.99
2019-01-23T05:54:49.985Z,82.08
2019-01-23T05:58:05.345Z,82.14
2019-01-23T06:01:20.677Z,82.48
2019-01-23T06:04:36.332Z,83.26
2019-01-23T06:07:51.790Z,83.48
2019-01-23T06:11:07.280Z,84.10
2019-01-23T06:14:22.598Z,84.44
2019-01-23T06:17:38.065Z,84.31
2019-01-23T06:20:53.418Z,84.27
2019-01-23T06:24:08.651Z,84.17
2019-01-23T06:27:23.779Z,83.80
2019-01-23T06:30:38.968Z,83.58
2019-01-23T06:33:54.606Z,83.33
2019-01-23T06:37:09.964Z,83.27
2019-01-23T06:40:25.733Z,83.21
2019-01-23T06:43:41.137Z,82.83
2019-01-23T06:46:56.635Z,82.90
2019-01-23T06:50:14.718Z,82.95
2019-01-23T06:53:29.900Z,82.96
2019-01-23T06:56:45.356Z,82.99
2019-01-23T07:00:00.847Z,83.13
2019-01-23T07:03:16.372Z,83.59
2019-01-23T07:06:31.927Z,84.05
2019-01-23T07:09:47.171Z,83.83
2019-01-23T07:13:02.732Z,83.62
2019-01-23T07:16:18.089Z,83.28
2019-01-23T07:19:33.595Z,83.59
2019-01-23T07:22:48.889Z,83.54
2019-01-23T07:26:05.892Z,83.48
2019-01-23T07:29:21.801Z,82.98
2019-01-23T07:32:37.199Z,82.99
2019-01-23T07:35:52.452Z,82.94
2019-01-23T07:39:09.546Z,82.80
2019-01-23T07:42:24.767Z,82.80
2019-01-23T07:45:40.245Z,82.74
2019-01-23T07:48:57.849Z,82.65
2019-01-23T07:52:13.511Z,82.33
2019-01-23T07:55:29.262Z,82.66
2019-01-23T07:58:44.735Z,82.86
2019-01-23T08:02:00.084Z,82.70
2019-01-23T08:05:19.439Z,82.99
2019-01-23T08:08:33.242Z,82.62
2019-01-23T08:11:51.478Z,82.68
2019-01-23T08:15:12.233Z,82.12
2019-01-23T08:18:27.816Z,81.36
2019-01-23T08:21:43.251Z,81.56
2019-01-23T08:24:58.616Z,81.94
2019-01-23T08:28:14.256Z,81.41
2019-01-23T08:31:29.826Z,80.87
2019-01-23T08:34:45.175Z,80.03
2019-01-23T08:38:00.431Z,80.15
2019-01-23T08:41:15.654Z,80.27
2019-01-23T08:44:30.996Z,79.79
2019-01-23T08:47:46.627Z,79.19
2019-01-23T08:51:03.389Z,79.31
2019-01-23T08:54:18.769Z,79.32
2019-01-23T08:57:34.116Z,79.34
2019-01-23T09:00:49.426Z,78.42
2019-01-23T09:04:04.663Z,78.22
2019-01-23T09:07:20.224Z,77.68
2019-01-23T09:10:35.412Z,77.91
2019-01-23T09:13:50.735Z,76.91
2019-01-23T09:17:05.963Z,76.55
2019-01-23T09:20:21.344Z,76.15
2019-01-23T09:23:36.488Z,76.07
2019-01-23T09:26:51.846Z,75.85
2019-01-23T09:30:12.232Z,75.13
2019-01-23T09:34:10.979Z,75.13
2019-01-23T09:38:11.669Z,75.11
2019-01-23T09:42:02.289Z,75.14
2019-01-23T09:45:53.989Z,75.01
2019-01-23T09:49:22.413Z,74.38
2019-01-23T09:52:53.016Z,74.89
2019-01-23T09:56:09.157Z,74.70
2019-01-23T09:59:24.778Z,75.11
2019-01-23T10:02:39.900Z,75.51
2019-01-23T10:05:55.047Z,74.94
2019-01-23T10:09:10.675Z,75.00
2019-01-23T10:12:26.791Z,73.86
2019-01-23T10:15:50.507Z,73.08
2019-01-23T10:19:05.964Z,72.85
2019-01-23T10:22:21.133Z,72.54
2019-01-23T10:25:36.559Z,72.33
2019-01-23T10:28:51.853Z,71.63
2019-01-23T10:32:07.349Z,70.89
2019-01-23T10:35:22.737Z,70.60
2019-01-23T10:38:38.295Z,70.41
2019-01-23T10:41:53.439Z,69.39
2019-01-23T10:45:10.153Z,69.99
2019-01-23T10:48:25.781Z,69.52
2019-01-23T10:51:41.330Z,70.10
2019-01-23T10:54:57.009Z,68.86
2019-01-23T10:58:12.557Z,68.74
2019-01-23T11:01:27.936Z,69.67
2019-01-23T11:04:43.180Z,68.35
2019-01-23T11:07:58.528Z,69.71
2019-01-23T11:11:13.767Z,68.63
2019-01-23T11:14:29.327Z,68.85
2019-01-23T11:17:44.360Z,68.30
2019-01-23T11:20:59.527Z,68.14
2019-01-23T11:24:14.978Z,68.59
2019-01-23T11:27:30.329Z,68.32
2019-01-23T11:30:45.782Z,67.83
2019-01-23T11:34:00.931Z,68.33
2019-01-23T11:37:16.081Z,68.52
2019-01-23T11:40:31.765Z,67.79
2019-01-23T11:43:47.300Z,67.00
2019-01-23T11:47:03.556Z,67.44
2019-01-23T11:50:22.928Z,69.08
2019-01-23T11:53:35.891Z,68.89
2019-01-23T11:56:52.101Z,68.39
2019-01-23T12:00:11.621Z,68.20
2019-01-23T12:03:26.678Z,68.48
2019-01-23T12:06:42.066Z,68.58
2019-01-23T12:09:57.690Z,68.18
2019-01-23T12:13:13.143Z,68.92
2019-01-23T12:16:28.437Z,68.95
2019-01-23T12:19:44.534Z,69.20
2019-01-23T12:22:59.817Z,70.03
2019-01-23T12:26:15.261Z,69.92
2019-01-23T12:29:30.622Z,69.69
2019-01-23T12:32:46.086Z,69.47
2019-01-23T12:36:01.430Z,69.86
2019-01-23T12:39:16.667Z,69.89
2019-01-23T12:42:32.387Z,70.19
2019-01-23T12:45:47.725Z,70.37
2019-01-23T12:49:03.253Z,70.84
2019-01-23T12:52:18.724Z,71.15
2019-01-23T12:55:34.352Z,71.45
2019-01-23T12:58:49.611Z,70.76
2019-01-23T13:02:09.712Z,70.74
2019-01-23T13:05:22.025Z,71.10
2019-01-23T13:08:37.310Z,71.24
2019-01-23T13:11:54.481Z,71.53
2019-01-23T13:15:10.032Z,70.88
2019-01-23T13:18:26.204Z,69.95
2019-01-23T13:21:41.694Z,69.76
2019-01-23T13:24:57.253Z,70.07
2019-01-23T13:28:12.785Z,69.49
2019-01-23T13:31:28.154Z,69.84
2019-01-23T13:34:43.616Z,69.21
2019-01-23T13:37:58.968Z,69.83
2019-01-23T13:41:14.331Z,69.83
2019-01-23T13:44:29.445Z,69.68
2019-01-23T13:47:44.819Z,70.45
2019-01-23T13:51:00.904Z,69.96
2019-01-23T13:54:16.031Z,68.96
2019-01-23T13:57:32.183Z,69.24
2019-01-23T14:00:47.655Z,69.17
2019-01-23T14:04:03.407Z,68.95
2019-01-23T14:07:18.791Z,69.43
2019-01-23T14:10:34.309Z,69.30
2019-01-23T14:14:07.569Z,69.66
2019-01-23T14:17:22.631Z,69.66
2019-01-23T14:20:37.998Z,69.91
2019-01-23T14:23:53.345Z,70.39
2019-01-23T14:27:09.199Z,69.91
2019-01-23T14:30:32.675Z,70.46
2019-01-23T14:33:48.099Z,70.94
2019-01-23T14:37:03.271Z,70.34
2019-01-23T14:40:19.017Z,70.91
2019-01-23T14:43:34.680Z,70.78
2019-01-23T14:46:50.043Z,71.00
2019-01-23T14:50:06.600Z,71.05
2019-01-23T14:53:21.660Z,70.85
2019-01-23T14:56:37.167Z,70.91
2019-01-23T14:59:52.716Z,71.13
2019-01-23T15:03:08.014Z,70.42
2019-01-23T15:06:23.372Z,70.84
2019-01-23T15:09:38.722Z,71.68
2019-01-23T15:12:54.067Z,71.60
2019-01-23T15:16:09.621Z,72.05
2019-01-23T15:19:24.462Z,72.29
2019-01-23T15:22:39.184Z,73.01
2019-01-23T15:25:54.664Z,72.30
2019-01-23T15:29:11.013Z,71.97
2019-01-23T15:32:26.993Z,72.56
2019-01-23T15:35:42.355Z,72.97
2019-01-23T15:38:58.143Z,72.24
2019-01-23T15:42:13.492Z,72.26
2019-01-23T15:45:28.713Z,72.20
2019-01-23T15:48:44.178Z,72.70
2019-01-23T15:51:59.422Z,73.44
2019-01-23T15:55:14.644Z,73.67
2019-01-23T15:58:30.534Z,73.51
2019-01-23T16:01:45.998Z,74.15
2019-01-23T16:05:01.479Z,73.87
2019-01-23T16:08:18.737Z,74.44
2019-01-23T16:11:34.304Z,74.60
2019-01-23T16:14:49.864Z,74.62
2019-01-23T16:18:05.216Z,75.06
2019-01-23T16:21:20.533Z,74.96
2019-01-23T16:24:35.711Z,74.90
2019-01-23T16:27:50.971Z,75.16
2019-01-23T16:31:06.217Z,75.31
2019-01-23T16:34:21.923Z,75.26
2019-01-23T16:37:37.951Z,75.23
2019-01-23T16:40:53.325Z,75.07
2019-01-23T16:44:10.587Z,74.72
2019-01-23T16:47:25.935Z,74.32
2019-01-23T16:50:41.462Z,74.47
2019-01-23T16:53:56.532Z,74.77
2019-01-23T16:57:12.369Z,74.15
2019-01-23T17:00:28.065Z,74.83
2019-01-23T17:03:43.634Z,74.71
2019-01-23T17:06:59.237Z,73.98
2019-01-23T17:10:16.826Z,74.03
2019-01-23T17:13:32.243Z,73.83
2019-01-23T17:16:47.592Z,73.79
2019-01-23T17:20:02.977Z,74.00
2019-01-23T17:23:18.210Z,73.93
2019-01-23T17:26:33.679Z,73.99
2019-01-23T17:29:49.094Z,73.37
2019-01-23T17:33:04.454Z,73.28
2019-01-23T17:36:19.829Z,73.79
2019-01-23T17:39:35.069Z,74.11
2019-01-23T17:42:50.288Z,73.74
2019-01-23T17:46:05.997Z,74.34
2019-01-23T17:49:21.405Z,74.53
2019-01-23T17:52:36.897Z,74.35
2019-01-23T17:55:52.372Z,73.94
2019-01-23T17:59:07.379Z,73.49
2019-01-23T18:02:22.777Z,73.67
2019-01-23T18:05:38.205Z,73.93
2019-01-23T18:08:54.355Z,73.61
2019-01-23T18:12:10.528Z,73.87
2019-01-23T18:15:25.840Z,73.33
2019-01-23T18:18:40.764Z,73.66
2019-01-23T18:21:56.189Z,73.47
2019-01-23T18:25:10.871Z,73.63
2019-01-23T18:28:26.913Z,73.58
2019-01-23T18:31:49.031Z,73.23
2019-01-23T18:35:21.018Z,73.30
2019-01-23T18:39:08.812Z,73.23
2019-01-23T18:42:45.656Z,73.92
2019-01-23T18:46:19.942Z,73.86
2019-01-23T18:50:00.204Z,73.41
2019-01-23T18:53:14.499Z,73.45
2019-01-23T18:56:29.530Z,73.84
2019-01-23T18:59:45.013Z,74.54
2019-01-23T19:03:06.697Z,74.73
2019-01-23T19:06:18.054Z,74.87
2019-01-23T19:09:33.426Z,75.16
2019-01-23T19:12:49.275Z,74.95
2019-01-23T19:16:04.179Z,74.79
2019-01-23T19:19:20.471Z,75.27
2019-01-23T19:22:35.952Z,75.45
2019-01-23T19:25:51.359Z,75.37
2019-01-23T19:29:06.891Z,75.48
2019-01-23T19:32:22.521Z,75.95
2019-01-23T19:35:37.970Z,76.42
2019-01-23T19:38:53.432Z,77.29
2019-01-23T19:42:08.976Z,77.69
2019-01-23T19:45:24.532Z,78.02
2019-01-23T19:48:40.078Z,77.95
2019-01-23T19:51:56.047Z,77.69
2019-01-23T19:55:11.623Z,77.46
2019-01-23T19:58:26.964Z,77.98
2019-01-23T20:01:42.814Z,77.87
2019-01-23T20:04:57.893Z,77.95
2019-01-23T20:08:13.378Z,78.00
2019-01-23T20:11:28.699Z,77.81
2019-01-23T20:14:44.141Z,77.71
2019-01-23T20:18:05.071Z,77.36
2019-01-23T20:21:21.189Z,77.16
2019-01-23T20:24:36.551Z,77.83
2019-01-23T20:27:52.018Z,77.97
2019-01-23T20:31:07.359Z,78.12
2019-01-23T20:34:22.613Z,77.89
2019-01-23T20:37:37.964Z,77.78
2019-01-23T20:40:52.691Z,77.67
2019-01-23T20:44:08.162Z,77.70
2019-01-23T20:47:23.614Z,77.67
2019-01-23T20:50:38.967Z,77.86
2019-01-23T20:53:54.421Z,77.59
2019-01-23T20:57:09.858Z,77.39
2019-01-23T21:00:27.498Z,77.13
2019-01-23T21:03:42.930Z,77.12
2019-01-23T21:06:58.864Z,77.23
2019-01-23T21:10:15.268Z,77.62
2019-01-23T21:13:30.731Z,77.69
2019-01-23T21:16:46.088Z,77.84
2019-01-23T21:20:01.540Z,77.67
2019-01-23T21:23:17.188Z,77.41
2019-01-23T21:26:32.551Z,77.47
2019-01-23T21:29:47.804Z,77.40
2019-01-23T21:33:03.366Z,77.22
2019-01-23T21:36:18.822Z,77.13
2019-01-23T21:39:34.271Z,77.21
2019-01-23T21:42:49.622Z,77.20
2019-01-23T21:46:07.368Z,77.38
2019-01-23T21:49:22.568Z,77.33
2019-01-23T21:52:38.642Z,77.06
2019-01-23T21:55:54.218Z,76.98
2019-01-23T21:59:09.365Z,77.12
2019-01-23T22:02:25.107Z,77.15
2019-01-23T22:05:40.239Z,77.14
2019-01-23T22:08:56.745Z,77.24
2019-01-23T22:12:12.099Z,77.35
2019-01-23T22:15:27.217Z,77.38
2019-01-23T22:18:42.549Z,77.24
2019-01-23T22:21:57.748Z,77.22
2019-01-23T22:25:14.155Z,77.28
2019-01-23T22:28:29.373Z,77.20
2019-01-23T22:31:44.490Z,77.09
2019-01-23T22:34:59.775Z,77.16
2019-01-23T22:38:15.210Z,77.04
2019-01-23T22:41:30.271Z,77.01
2019-01-23T22:44:45.426Z,77.17
2019-01-23T22:48:00.589Z,77.22
2019-01-23T22:51:16.024Z,77.31
2019-01-23T22:54:31.177Z,77.47
2019-01-23T22:57:47.412Z,77.22
2019-01-23T23:01:16.036Z,77.14
2019-01-23T23:04:31.360Z,77.09
2019-01-23T23:07:47.008Z,77.37
2019-01-23T23:11:02.161Z,77.51
2019-01-23T23:14:17.722Z,77.44
2019-01-23T23:17:33.129Z,77.64
2019-01-23T23:20:49.014Z,77.69
2019-01-23T23:24:04.567Z,77.56
2019-01-23T23:27:19.950Z,77.66
2019-01-23T23:30:35.398Z,77.74
2019-01-23T23:33:50.566Z,77.35
2019-01-23T23:37:06.570Z,77.11
2019-01-23T23:40:21.993Z,77.10
2019-01-23T23:43:37.242Z,77.46
2019-01-23T23:46:52.376Z,77.52
2019-01-23T23:50:08.005Z,77.64
2019-01-23T23:53:24.239Z,77.73
2019-01-23T23:56:39.560Z,77.94
2019-01-23T23:59:54.921Z,77.85
